Time;durP1;ratioP1;P1;durP2;ratioP2;P2;SDS_P1;SDS_P2;PMS_P1;PMS_P2;Temp;Humidity;BMP_temperature;BMP_pressure;BME280_temperature;BME280_humidity;BME280_pressure;Samples;Min_cycle;Max_cycle;Signal;HPM_P1;HPM_P2
2021/12/02 00:00:30;;;;;;;;;;;16.00;40.20;;;;;;8363815;28;19960;-49
2021/12/02 00:04:33;;;;;;;;;;;16.00;40.20;;;;;;8363673;28;19928;-49
2021/12/02 00:08:35;;;;;;;;;;;16.00;40.20;;;;;;8363079;28;21288;-49
2021/12/02 00:12:36;;;;;;;;;;;16.00;40.20;;;;;;8363493;28;19919;-49
2021/12/02 00:25:00;;;;;;;;;;;16.00;40.30;;;;;;8363015;28;20344;-49
2021/12/02 00:29:02;;;;;;;;;;;16.00;40.30;;;;;;8363256;28;19917;-49
2021/12/02 00:33:02;;;;;;;;;;;16.00;40.30;;;;;;8363237;28;20305;-52
2021/12/02 00:37:03;;;;;;;;;;;16.00;40.20;;;;;;8362691;28;20003;-51
2021/12/02 00:41:03;;;;;;;;;;;16.10;40.20;;;;;;8363498;28;19961;-52
2021/12/02 00:45:04;;;;;;;;;;;16.00;40.20;;;;;;8362571;28;19931;-48
2021/12/02 00:49:07;;;;;;;;;;;16.00;40.20;;;;;;8363143;28;19967;-48
2021/12/02 00:53:07;;;;;;;;;;;16.10;40.30;;;;;;8363044;28;19913;-50
2021/12/02 00:57:09;;;;;;;;;;;16.10;40.30;;;;;;8362559;28;19917;-50
2021/12/02 01:01:10;;;;;;;;;;;16.00;40.20;;;;;;8363089;28;20305;-50
2021/12/02 01:05:11;;;;;;;;;;;16.00;40.30;;;;;;8362672;28;19920;-52
2021/12/02 01:09:11;;;;;;;;;;;16.00;40.20;;;;;;8362270;28;20011;-49
2021/12/02 01:13:12;;;;;;;;;;;16.00;40.20;;;;;;8362973;28;20372;-49
2021/12/02 01:17:12;;;;;;;;;;;16.00;40.20;;;;;;8362586;28;20007;-49
2021/12/02 01:21:18;;;;;;;;;;;16.00;40.20;;;;;;8362076;28;19921;-49
2021/12/02 01:25:19;;;;;;;;;;;16.00;40.30;;;;;;8362571;28;19975;-49
2021/12/02 01:29:20;;;;;;;;;;;16.00;40.30;;;;;;8362533;28;20004;-48
2021/12/02 01:33:22;;;;;;;;;;;16.00;40.20;;;;;;8362302;28;19923;-49
2021/12/02 01:37:23;;;;;;;;;;;16.00;40.20;;;;;;8362299;28;20266;-48
2021/12/02 01:41:23;;;;;;;;;;;16.00;40.20;;;;;;8362091;28;19917;-49
2021/12/02 01:45:25;;;;;;;;;;;16.00;40.20;;;;;;8361836;28;19929;-49
2021/12/02 01:49:29;;;;;;;;;;;16.00;40.20;;;;;;8364508;28;20278;-49
2021/12/02 01:53:32;;;;;;;;;;;16.00;40.20;;;;;;8368444;28;19916;-48
2021/12/02 01:57:33;;;;;;;;;;;16.00;40.20;;;;;;8367576;28;20301;-49
2021/12/02 02:01:34;;;;;;;;;;;16.00;40.30;;;;;;8367681;28;19921;-48
2021/12/02 02:05:35;;;;;;;;;;;16.00;40.30;;;;;;8354491;28;20355;-49
2021/12/02 02:09:35;;;;;;;;;;;16.00;40.30;;;;;;8367111;28;19924;-49
2021/12/02 02:13:36;;;;;;;;;;;16.00;40.20;;;;;;8367643;28;19913;-49
2021/12/02 02:17:47;;;;;;;;;;;16.10;40.30;;;;;;8367347;28;19917;-49
2021/12/02 02:21:48;;;;;;;;;;;16.00;40.20;;;;;;8367143;28;19917;-49
2021/12/02 02:25:48;;;;;;;;;;;16.00;40.20;;;;;;8367071;28;19995;-49
2021/12/02 02:29:49;;;;;;;;;;;16.00;40.20;;;;;;8366480;28;19948;-49
2021/12/02 02:33:50;;;;;;;;;;;16.10;40.20;;;;;;8366912;28;19920;-49
2021/12/02 02:37:51;;;;;;;;;;;16.00;40.20;;;;;;8366910;28;19924;-48
2021/12/02 02:42:00;;;;;;;;;;;16.00;40.20;;;;;;8365894;28;19955;-50
2021/12/02 02:46:01;;;;;;;;;;;16.00;40.20;;;;;;8366334;28;19936;-48
2021/12/02 02:50:01;;;;;;;;;;;16.00;40.20;;;;;;8366614;28;19956;-48
2021/12/02 02:54:05;;;;;;;;;;;16.00;40.20;;;;;;8366069;28;19999;-49
2021/12/02 02:58:19;;;;;;;;;;;16.00;40.20;;;;;;8366007;28;19924;-50
2021/12/02 03:02:27;;;;;;;;;;;16.00;40.20;;;;;;8365112;28;19952;-49
2021/12/02 03:06:36;;;;;;;;;;;16.00;40.20;;;;;;8366007;28;19917;-52
2021/12/02 03:18:58;;;;;;;;;;;16.00;40.20;;;;;;8334363;28;19923;-47
2021/12/02 03:22:58;;;;;;;;;;;16.00;40.20;;;;;;8365133;28;19929;-49
2021/12/02 03:26:59;;;;;;;;;;;16.00;40.20;;;;;;8364843;28;19982;-48
2021/12/02 03:31:02;;;;;;;;;;;15.90;40.10;;;;;;8364913;28;19917;-48
2021/12/02 03:35:03;;;;;;;;;;;15.90;40.10;;;;;;8364943;28;19912;-51
2021/12/02 03:39:04;;;;;;;;;;;15.90;40.10;;;;;;8364645;28;20278;-48
2021/12/02 03:43:05;;;;;;;;;;;15.90;40.20;;;;;;8364448;28;20292;-48
2021/12/02 03:47:05;;;;;;;;;;;15.90;40.20;;;;;;8364688;28;19928;-49
2021/12/02 03:51:06;;;;;;;;;;;16.00;40.20;;;;;;8363882;28;19928;-49
2021/12/02 03:55:07;;;;;;;;;;;16.00;40.20;;;;;;8364535;28;19913;-49
2021/12/02 03:59:08;;;;;;;;;;;16.00;40.30;;;;;;8364708;28;19948;-49
2021/12/02 04:03:08;;;;;;;;;;;16.00;40.20;;;;;;8363419;28;19970;-49
2021/12/02 04:07:10;;;;;;;;;;;16.00;40.20;;;;;;8364194;28;19916;-49
2021/12/02 04:11:23;;;;;;;;;;;16.00;40.20;;;;;;8363934;28;19925;-50
2021/12/02 04:15:27;;;;;;;;;;;16.00;40.20;;;;;;8363492;28;19994;-51
2021/12/02 04:19:27;;;;;;;;;;;16.00;40.20;;;;;;8363672;28;19913;-49
2021/12/02 04:23:27;;;;;;;;;;;16.00;40.20;;;;;;8363488;28;19928;-49
2021/12/02 04:27:28;;;;;;;;;;;16.00;40.20;;;;;;8362968;28;19917;-49
2021/12/02 04:31:28;;;;;;;;;;;16.00;40.20;;;;;;8363291;28;20000;-49
2021/12/02 04:35:29;;;;;;;;;;;16.00;40.20;;;;;;8363117;28;20266;-48
2021/12/02 04:39:29;;;;;;;;;;;16.00;40.20;;;;;;8363027;28;20298;-48
2021/12/02 04:43:30;;;;;;;;;;;16.00;40.20;;;;;;8362885;28;19932;-49
2021/12/02 04:47:30;;;;;;;;;;;16.00;40.20;;;;;;8363121;28;19913;-51
2021/12/02 04:51:31;;;;;;;;;;;16.00;40.20;;;;;;8362411;28;20322;-50
2021/12/02 04:55:31;;;;;;;;;;;16.00;40.20;;;;;;8362941;28;20374;-50
2021/12/02 04:59:32;;;;;;;;;;;16.00;40.20;;;;;;8363479;28;20365;-50
2021/12/02 05:03:32;;;;;;;;;;;16.00;40.20;;;;;;8362305;28;19928;-49
2021/12/02 05:07:33;;;;;;;;;;;16.00;40.10;;;;;;8362894;28;19917;-51
2021/12/02 05:11:34;;;;;;;;;;;15.90;40.10;;;;;;8349687;28;19917;-55
2021/12/02 05:15:34;;;;;;;;;;;15.90;40.10;;;;;;8334515;28;19959;-51
2021/12/02 05:19:35;;;;;;;;;;;16.00;40.20;;;;;;8362708;28;20277;-51
2021/12/02 05:23:35;;;;;;;;;;;15.90;40.10;;;;;;8363586;28;19947;-49
2021/12/02 05:27:36;;;;;;;;;;;16.00;40.20;;;;;;8368443;28;19921;-48
2021/12/02 05:31:36;;;;;;;;;;;16.00;40.10;;;;;;8368500;28;19924;-50
2021/12/02 05:35:36;;;;;;;;;;;16.00;40.20;;;;;;8368401;28;19963;-48
2021/12/02 05:39:37;;;;;;;;;;;15.90;40.10;;;;;;8368207;28;20003;-48
2021/12/02 05:43:37;;;;;;;;;;;15.90;40.10;;;;;;8368375;28;20003;-48
2021/12/02 05:47:38;;;;;;;;;;;15.90;40.10;;;;;;8367014;28;19917;-49
2021/12/02 05:51:40;;;;;;;;;;;16.00;40.20;;;;;;8367666;28;19916;-48
2021/12/02 05:55:41;;;;;;;;;;;15.90;40.10;;;;;;8367733;28;19920;-49
2021/12/02 05:59:41;;;;;;;;;;;15.90;40.10;;;;;;8368375;28;19936;-49
2021/12/02 06:03:42;;;;;;;;;;;15.90;40.10;;;;;;8366947;28;19925;-49
2021/12/02 06:07:43;;;;;;;;;;;16.00;40.10;;;;;;8367668;28;19916;-49
2021/12/02 06:11:44;;;;;;;;;;;15.90;40.10;;;;;;8367667;28;19924;-49
2021/12/02 06:15:44;;;;;;;;;;;16.00;40.10;;;;;;8367313;28;20396;-49
2021/12/02 06:19:45;;;;;;;;;;;16.00;40.20;;;;;;8367519;28;19932;-49
2021/12/02 06:23:45;;;;;;;;;;;15.90;40.10;;;;;;8366534;28;19935;-50
2021/12/02 06:27:47;;;;;;;;;;;16.00;40.20;;;;;;8366912;28;19939;-51
2021/12/02 06:31:48;;;;;;;;;;;15.90;40.10;;;;;;8367012;28;19916;-48
2021/12/02 06:35:48;;;;;;;;;;;16.00;40.10;;;;;;8365074;28;19925;-48
2021/12/02 06:39:48;;;;;;;;;;;15.90;40.10;;;;;;8367134;28;19920;-48
2021/12/02 06:43:49;;;;;;;;;;;15.90;40.10;;;;;;8366338;28;19925;-50
2021/12/02 06:47:51;;;;;;;;;;;16.00;40.10;;;;;;8365830;28;20273;-48
2021/12/02 06:51:52;;;;;;;;;;;15.90;40.10;;;;;;8366296;28;19956;-48
2021/12/02 06:55:52;;;;;;;;;;;15.90;40.60;;;;;;8365974;28;19913;-48
2021/12/02 06:59:53;;;;;;;;;;;15.90;40.10;;;;;;8365780;28;19920;-48
2021/12/02 07:03:53;;;;;;;;;;;15.90;40.10;;;;;;8365564;28;19926;-49
2021/12/02 07:07:54;;;;;;;;;;;15.90;40.10;;;;;;8365749;28;19917;-49
2021/12/02 07:11:54;;;;;;;;;;;16.00;40.10;;;;;;8365275;28;20385;-52
2021/12/02 07:15:56;;;;;;;;;;;16.00;40.10;;;;;;8365469;28;19917;-52
2021/12/02 07:19:56;;;;;;;;;;;16.00;40.10;;;;;;8365418;28;19913;-52
2021/12/02 07:23:57;;;;;;;;;;;15.90;40.00;;;;;;8364762;28;19971;-48
2021/12/02 07:27:57;;;;;;;;;;;16.00;40.10;;;;;;8365139;28;20766;-50
2021/12/02 07:32:00;;;;;;;;;;;15.90;40.00;;;;;;8365228;28;20298;-49
2021/12/02 07:36:00;;;;;;;;;;;16.00;40.10;;;;;;8364437;28;20317;-49
2021/12/02 07:40:02;;;;;;;;;;;15.90;40.10;;;;;;8364956;28;19917;-49
2021/12/02 07:44:02;;;;;;;;;;;16.00;40.10;;;;;;8364554;28;20011;-49
2021/12/02 07:48:04;;;;;;;;;;;15.90;40.10;;;;;;8363885;28;19921;-49
2021/12/02 07:52:05;;;;;;;;;;;16.00;40.10;;;;;;8364867;28;20416;-48
2021/12/02 07:56:07;;;;;;;;;;;15.90;40.10;;;;;;8364299;28;20008;-48
2021/12/02 08:00:08;;;;;;;;;;;15.90;40.10;;;;;;8364142;28;19928;-50
2021/12/02 08:04:08;;;;;;;;;;;16.00;40.10;;;;;;8364501;28;19924;-48
2021/12/02 08:08:09;;;;;;;;;;;16.00;40.10;;;;;;8354361;28;19913;-49
2021/12/02 08:12:10;;;;;;;;;;;16.00;40.10;;;;;;8339346;28;19921;-49
2021/12/02 08:16:10;;;;;;;;;;;15.90;40.00;;;;;;8363674;28;19927;-49
2021/12/02 08:20:11;;;;;;;;;;;15.90;40.00;;;;;;8363890;28;20372;-48
2021/12/02 08:24:12;;;;;;;;;;;15.90;40.00;;;;;;8363039;28;19925;-49
2021/12/02 08:28:12;;;;;;;;;;;16.00;40.10;;;;;;8363789;28;20004;-48
2021/12/02 08:32:13;;;;;;;;;;;15.90;40.00;;;;;;8363472;28;19913;-49
2021/12/02 08:36:14;;;;;;;;;;;16.00;40.10;;;;;;8363168;28;19923;-48
2021/12/02 08:40:16;;;;;;;;;;;16.00;40.10;;;;;;8363532;28;19928;-48
2021/12/02 08:44:17;;;;;;;;;;;16.00;40.10;;;;;;8363118;28;19925;-48
2021/12/02 08:48:17;;;;;;;;;;;16.00;40.10;;;;;;8362764;28;20408;-48
2021/12/02 08:52:19;;;;;;;;;;;16.00;40.10;;;;;;8363091;28;19913;-48
2021/12/02 08:56:20;;;;;;;;;;;16.00;40.10;;;;;;8363254;28;19988;-48
2021/12/02 09:00:22;;;;;;;;;;;16.00;40.10;;;;;;8366739;28;20301;-48
2021/12/02 09:04:22;;;;;;;;;;;16.00;40.10;;;;;;8369879;28;20346;-48
2021/12/02 09:08:24;;;;;;;;;;;16.00;40.10;;;;;;8369678;28;19932;-48
2021/12/02 09:12:24;;;;;;;;;;;16.00;40.10;;;;;;8368988;28;19924;-51
2021/12/02 09:16:25;;;;;;;;;;;16.00;40.10;;;;;;8369849;28;19917;-48
2021/12/02 09:20:26;;;;;;;;;;;16.00;40.10;;;;;;8369263;28;19924;-48
2021/12/02 09:24:26;;;;;;;;;;;16.00;40.10;;;;;;8368518;28;19925;-48
2021/12/02 09:28:27;;;;;;;;;;;16.00;40.10;;;;;;8369025;28;19956;-51
2021/12/02 09:32:28;;;;;;;;;;;16.00;40.00;;;;;;8368924;28;20297;-48
2021/12/02 09:36:28;;;;;;;;;;;16.00;40.00;;;;;;8368495;28;20328;-49
2021/12/02 09:40:28;;;;;;;;;;;16.00;40.60;;;;;;8368782;28;20021;-48
2021/12/02 09:44:29;;;;;;;;;;;16.00;40.00;;;;;;8368268;28;19925;-52
2021/12/02 09:48:30;;;;;;;;;;;16.00;40.00;;;;;;8367597;28;19917;-49
2021/12/02 09:52:35;;;;;;;;;;;16.00;40.00;;;;;;8368546;28;19916;-48
2021/12/02 09:56:38;;;;;;;;;;;16.10;40.00;;;;;;8368149;28;19917;-48
2021/12/02 10:00:46;;;;;;;;;;;16.10;40.00;;;;;;8367722;28;19928;-50
2021/12/02 10:04:52;;;;;;;;;;;16.10;40.00;;;;;;8373055;28;20409;-48
2021/12/02 10:08:57;;;;;;;;;;;16.10;40.00;;;;;;8369636;28;19913;-48
2021/12/02 10:13:05;;;;;;;;;;;16.10;40.00;;;;;;8367744;28;19966;-48
2021/12/02 10:17:14;;;;;;;;;;;16.10;40.00;;;;;;8367262;28;19928;-48
2021/12/02 10:21:21;;;;;;;;;;;16.10;40.00;;;;;;8366854;28;19948;-47
2021/12/02 10:25:28;;;;;;;;;;;16.10;40.60;;;;;;8370659;28;19925;-48
2021/12/02 10:29:30;;;;;;;;;;;16.10;40.00;;;;;;8366949;28;19913;-50
2021/12/02 10:33:31;;;;;;;;;;;16.10;40.00;;;;;;8366400;28;19921;-48
2021/12/02 10:37:35;;;;;;;;;;;16.10;40.00;;;;;;8366873;28;19920;-49
2021/12/02 10:41:36;;;;;;;;;;;16.10;40.00;;;;;;8366846;28;20285;-48
2021/12/02 10:45:37;;;;;;;;;;;16.10;40.00;;;;;;8366040;28;19925;-49
2021/12/02 10:49:49;;;;;;;;;;;16.10;40.00;;;;;;8366632;28;19923;-49
2021/12/02 10:53:59;;;;;;;;;;;16.10;40.00;;;;;;8368434;28;19936;-48
2021/12/02 10:58:00;;;;;;;;;;;16.10;40.00;;;;;;8366391;28;19919;-49
2021/12/02 11:02:03;;;;;;;;;;;16.10;40.00;;;;;;8366306;28;20305;-48
2021/12/02 11:06:04;;;;;;;;;;;16.10;40.00;;;;;;8365814;28;20011;-49
2021/12/02 11:10:06;;;;;;;;;;;16.20;40.00;;;;;;8355391;28;19918;-49
2021/12/02 11:14:11;;;;;;;;;;;16.10;40.00;;;;;;8347822;28;19927;-47
2021/12/02 11:18:14;;;;;;;;;;;16.20;40.00;;;;;;8365160;28;19952;-47
2021/12/02 11:22:18;;;;;;;;;;;16.20;40.00;;;;;;8365032;28;20413;-51
2021/12/02 11:26:19;;;;;;;;;;;16.20;40.00;;;;;;8365227;28;19974;-49
2021/12/02 11:30:27;;;;;;;;;;;16.20;40.00;;;;;;8364843;28;19916;-51
2021/12/02 11:34:30;;;;;;;;;;;16.20;40.00;;;;;;8365199;28;19970;-48
2021/12/02 11:38:31;;;;;;;;;;;16.20;40.00;;;;;;8364918;28;19944;-48
2021/12/02 11:42:32;;;;;;;;;;;16.20;40.00;;;;;;8364479;28;19987;-50
2021/12/02 11:46:32;;;;;;;;;;;16.20;40.00;;;;;;8365160;28;19971;-49
2021/12/02 11:50:33;;;;;;;;;;;16.20;40.10;;;;;;8364592;28;19999;-50
2021/12/02 11:54:34;;;;;;;;;;;16.20;40.00;;;;;;8363919;28;19921;-47
2021/12/02 11:58:34;;;;;;;;;;;16.20;40.00;;;;;;8364330;28;20279;-49
2021/12/02 12:02:36;;;;;;;;;;;16.20;40.00;;;;;;8364658;28;19970;-51
2021/12/02 12:06:38;;;;;;;;;;;16.20;40.00;;;;;;8363674;28;20301;-49
2021/12/02 12:10:40;;;;;;;;;;;16.20;40.00;;;;;;8364094;28;19924;-49
2021/12/02 12:14:41;;;;;;;;;;;16.20;40.00;;;;;;8363863;28;19917;-49
2021/12/02 12:18:41;;;;;;;;;;;16.20;40.00;;;;;;8363700;28;19999;-49
2021/12/02 12:22:42;;;;;;;;;;;16.20;40.00;;;;;;8364124;28;19917;-50
2021/12/02 12:26:45;;;;;;;;;;;16.20;40.00;;;;;;8363113;28;19916;-47
2021/12/02 12:30:45;;;;;;;;;;;16.20;40.00;;;;;;8363411;28;19921;-49
2021/12/02 12:38:47;;;;;;;;;;;16.20;40.00;;;;;;8363163;28;19924;-49
2021/12/02 12:42:49;;;;;;;;;;;16.20;40.00;;;;;;8363697;28;19920;-49
2021/12/02 12:46:54;;;;;;;;;;;16.20;40.00;;;;;;8363446;28;20277;-49
2021/12/02 12:51:08;;;;;;;;;;;16.20;40.00;;;;;;8362603;28;19924;-49
2021/12/02 12:55:15;;;;;;;;;;;16.20;40.00;;;;;;8362913;28;19917;-49
2021/12/02 12:59:18;;;;;;;;;;;16.20;40.00;;;;;;8362948;28;19925;-48
2021/12/02 13:03:25;;;;;;;;;;;16.20;40.50;;;;;;8362259;28;19958;-47
2021/12/02 13:07:26;;;;;;;;;;;16.20;40.00;;;;;;8369337;28;19924;-49
2021/12/02 13:11:29;;;;;;;;;;;16.20;40.00;;;;;;8362624;28;19917;-49
2021/12/02 13:15:29;;;;;;;;;;;16.20;40.00;;;;;;8362204;28;19917;-49
2021/12/02 13:19:30;;;;;;;;;;;16.20;40.00;;;;;;8362877;28;19939;-49
2021/12/02 13:23:32;;;;;;;;;;;16.20;40.00;;;;;;8362248;28;19933;-50
2021/12/02 13:27:33;;;;;;;;;;;16.20;40.00;;;;;;8362122;28;19912;-47
2021/12/02 13:31:34;;;;;;;;;;;16.20;39.90;;;;;;8362327;28;19924;-50
2021/12/02 13:35:34;;;;;;;;;;;16.20;40.00;;;;;;8362028;28;19917;-47
2021/12/02 13:39:36;;;;;;;;;;;16.20;39.90;;;;;;8361770;28;19931;-50
2021/12/02 13:43:50;;;;;;;;;;;16.20;39.90;;;;;;8361987;28;19921;-49
2021/12/02 13:47:50;;;;;;;;;;;16.20;39.80;;;;;;8367784;28;19962;-49
2021/12/02 13:56:11;;;;;;;;;;;16.20;39.80;;;;;;8367913;28;19963;-47
2021/12/02 14:00:21;;;;;;;;;;;16.20;39.70;;;;;;8367623;28;19920;-50
2021/12/02 14:04:23;;;;;;;;;;;16.20;39.70;;;;;;8367587;28;19928;-48
2021/12/02 14:08:27;;;;;;;;;;;16.20;39.70;;;;;;8346565;28;19975;-51
2021/12/02 14:12:39;;;;;;;;;;;16.20;39.70;;;;;;8366961;28;20297;-47
2021/12/02 14:16:39;;;;;;;;;;;16.20;39.70;;;;;;8367556;28;19916;-52
2021/12/02 14:20:45;;;;;;;;;;;16.20;39.70;;;;;;8367234;28;19913;-48
2021/12/02 14:24:46;;;;;;;;;;;16.20;39.70;;;;;;8367037;28;19929;-51
2021/12/02 14:28:48;;;;;;;;;;;16.20;39.60;;;;;;8366942;28;20047;-48
2021/12/02 14:32:48;;;;;;;;;;;16.20;39.70;;;;;;8366788;28;19917;-48
2021/12/02 14:36:51;;;;;;;;;;;16.20;39.60;;;;;;8366931;28;19955;-49
2021/12/02 14:40:57;;;;;;;;;;;16.20;39.70;;;;;;8366525;28;19916;-48
2021/12/02 14:44:58;;;;;;;;;;;16.20;39.60;;;;;;8367874;28;20325;-48
2021/12/02 14:49:04;;;;;;;;;;;16.20;39.60;;;;;;8366097;28;20012;-47
2021/12/02 14:53:06;;;;;;;;;;;16.20;39.60;;;;;;8366197;28;19916;-48
2021/12/02 14:57:27;;;;;;;;;;;16.20;39.60;;;;;;8364587;28;19924;-49
2021/12/02 15:01:28;;;;;;;;;;;16.20;39.60;;;;;;8366110;28;20388;-47
2021/12/02 15:05:31;;;;;;;;;;;16.20;39.60;;;;;;8365626;28;19928;-48
2021/12/02 15:09:35;;;;;;;;;;;16.20;39.60;;;;;;8365378;28;19923;-49
2021/12/02 15:13:43;;;;;;;;;;;16.20;39.60;;;;;;8366055;28;19923;-48
2021/12/02 15:17:53;;;;;;;;;;;16.20;39.60;;;;;;8367868;28;19917;-51
2021/12/02 15:21:53;;;;;;;;;;;16.20;39.60;;;;;;8365353;28;19970;-51
2021/12/02 15:26:00;;;;;;;;;;;16.20;39.60;;;;;;8365300;28;19927;-52
2021/12/02 15:30:00;;;;;;;;;;;16.20;39.60;;;;;;8364490;28;19917;-49
2021/12/02 15:34:02;;;;;;;;;;;16.20;39.60;;;;;;8365181;28;20362;-50
2021/12/02 15:38:05;;;;;;;;;;;16.20;39.60;;;;;;8364821;28;19917;-48
2021/12/02 15:42:06;;;;;;;;;;;16.20;39.60;;;;;;8364292;28;20011;-48
2021/12/02 15:46:06;;;;;;;;;;;16.20;39.60;;;;;;8364354;28;19936;-49
2021/12/02 15:50:13;;;;;;;;;;;16.10;39.50;;;;;;8364398;28;20007;-48
2021/12/02 15:54:13;;;;;;;;;;;16.20;39.60;;;;;;8363809;28;20398;-48
2021/12/02 15:58:15;;;;;;;;;;;16.20;39.60;;;;;;8364338;28;19920;-51
2021/12/02 16:06:22;;;;;;;;;;;16.10;39.50;;;;;;8363610;28;19928;-49
2021/12/02 16:14:34;;;;;;;;;;;16.20;39.50;;;;;;8366917;28;19913;-49
2021/12/02 16:18:35;;;;;;;;;;;16.10;39.40;;;;;;8363355;28;19913;-47
2021/12/02 16:22:35;;;;;;;;;;;16.20;39.50;;;;;;8363568;28;19924;-49
2021/12/02 16:26:36;;;;;;;;;;;16.10;39.40;;;;;;8363481;28;20320;-49
2021/12/02 16:30:38;;;;;;;;;;;16.10;39.40;;;;;;8363013;28;20357;-48
2021/12/02 16:34:38;;;;;;;;;;;16.10;39.40;;;;;;8363537;28;19921;-49
2021/12/02 16:38:53;;;;;;;;;;;16.10;39.40;;;;;;8363548;28;19952;-48
2021/12/02 16:42:55;;;;;;;;;;;16.10;39.40;;;;;;8363021;28;20464;-51
2021/12/02 16:46:55;;;;;;;;;;;16.10;39.40;;;;;;8363289;28;19917;-47
2021/12/02 16:50:55;;;;;;;;;;;16.10;39.50;;;;;;8362625;28;19927;-49
2021/12/02 16:54:56;;;;;;;;;;;16.10;39.40;;;;;;8363000;28;19924;-48
2021/12/02 16:58:56;;;;;;;;;;;16.10;39.40;;;;;;8363119;28;19949;-48
2021/12/02 17:02:57;;;;;;;;;;;16.10;39.40;;;;;;8362378;28;20297;-48
2021/12/02 17:06:57;;;;;;;;;;;16.10;39.40;;;;;;8362927;28;20007;-48
2021/12/02 17:11:01;;;;;;;;;;;16.10;40.00;;;;;;8348924;28;20027;-48
2021/12/02 17:15:04;;;;;;;;;;;16.10;40.00;;;;;;8362120;28;20289;-51
2021/12/02 17:19:04;;;;;;;;;;;16.10;39.40;;;;;;8363117;28;20082;-48
2021/12/02 17:23:05;;;;;;;;;;;16.10;39.40;;;;;;8368969;28;19932;-47
2021/12/02 17:27:07;;;;;;;;;;;16.10;39.40;;;;;;8368509;28;19916;-49
2021/12/02 17:31:08;;;;;;;;;;;16.10;39.40;;;;;;8368758;28;19916;-50
2021/12/02 17:35:09;;;;;;;;;;;16.10;39.70;;;;;;8368674;28;19956;-49
2021/12/02 17:39:10;;;;;;;;;;;16.10;39.90;;;;;;8367935;28;19966;-51
2021/12/02 17:43:12;;;;;;;;;;;16.00;39.60;;;;;;8368394;28;19925;-50
2021/12/02 17:47:16;;;;;;;;;;;16.10;39.60;;;;;;8368321;28;19939;-52
2021/12/02 17:51:16;;;;;;;;;;;16.10;39.50;;;;;;8367613;28;20019;-48
2021/12/02 17:55:17;;;;;;;;;;;16.10;39.50;;;;;;8368251;28;19917;-50
2021/12/02 17:59:18;;;;;;;;;;;16.10;39.40;;;;;;8368438;28;19931;-49
2021/12/02 18:03:18;;;;;;;;;;;16.10;39.40;;;;;;8367388;28;19925;-52
2021/12/02 18:07:20;;;;;;;;;;;16.10;39.40;;;;;;8367683;28;19925;-49
2021/12/02 18:11:21;;;;;;;;;;;16.10;39.40;;;;;;8367640;28;19923;-49
2021/12/02 18:15:22;;;;;;;;;;;16.10;39.40;;;;;;8366880;28;19913;-50
2021/12/02 18:19:22;;;;;;;;;;;16.00;39.30;;;;;;8367509;28;19924;-51
2021/12/02 18:23:27;;;;;;;;;;;16.10;39.40;;;;;;8367163;28;19924;-51
2021/12/02 18:27:28;;;;;;;;;;;16.10;39.40;;;;;;8367188;28;19924;-49
2021/12/02 18:31:29;;;;;;;;;;;16.10;39.40;;;;;;8366946;28;19923;-50
2021/12/02 18:35:29;;;;;;;;;;;16.00;39.30;;;;;;8366875;28;19917;-51
2021/12/02 18:39:30;;;;;;;;;;;16.00;39.30;;;;;;8366478;28;19913;-50
2021/12/02 18:43:33;;;;;;;;;;;16.10;39.30;;;;;;8365315;28;19952;-51
2021/12/02 18:47:34;;;;;;;;;;;16.10;39.30;;;;;;8366781;28;19917;-51
2021/12/02 18:51:35;;;;;;;;;;;16.00;39.30;;;;;;8365776;28;20369;-48
2021/12/02 18:55:36;;;;;;;;;;;16.10;39.30;;;;;;8366492;28;20393;-49
2021/12/02 18:59:37;;;;;;;;;;;16.00;39.30;;;;;;8366664;28;19936;-50
2021/12/02 19:03:37;;;;;;;;;;;16.00;39.30;;;;;;8365413;28;19925;-49
2021/12/02 19:29:06;;;;;;;;;;;16.10;39.30;;;;;;8369840;28;19971;-49
2021/12/02 19:33:06;;;;;;;;;;;16.00;39.30;;;;;;8364430;28;19924;-51
2021/12/02 19:37:07;;;;;;;;;;;16.00;39.30;;;;;;8365309;28;19917;-52
2021/12/02 19:41:08;;;;;;;;;;;16.00;39.30;;;;;;8364617;28;20381;-49
2021/12/02 19:45:09;;;;;;;;;;;16.00;39.30;;;;;;8363843;28;19920;-50
2021/12/02 19:49:09;;;;;;;;;;;16.00;39.20;;;;;;8364951;28;20285;-49
2021/12/02 19:53:10;;;;;;;;;;;16.00;39.20;;;;;;8364447;28;19921;-49
2021/12/02 19:57:11;;;;;;;;;;;16.00;39.20;;;;;;8363988;28;19999;-49
2021/12/02 20:01:12;;;;;;;;;;;16.00;39.30;;;;;;8364655;28;20283;-50
2021/12/02 20:05:12;;;;;;;;;;;16.00;39.20;;;;;;8346021;28;19921;-50
2021/12/02 20:09:13;;;;;;;;;;;16.00;39.20;;;;;;8358403;28;20289;-52
2021/12/02 20:13:18;;;;;;;;;;;16.00;39.20;;;;;;8364004;28;19917;-50
2021/12/02 20:17:24;;;;;;;;;;;16.00;39.20;;;;;;8364091;28;19921;-49
2021/12/02 20:21:25;;;;;;;;;;;16.00;39.20;;;;;;8364272;28;19996;-49
2021/12/02 20:25:25;;;;;;;;;;;16.00;39.20;;;;;;8364024;28;19928;-50
2021/12/02 20:29:26;;;;;;;;;;;16.00;39.20;;;;;;8363567;28;19936;-49
2021/12/02 20:33:26;;;;;;;;;;;16.00;39.10;;;;;;8362891;28;19936;-48
2021/12/02 20:37:27;;;;;;;;;;;16.00;39.20;;;;;;8363436;28;19920;-51
2021/12/02 20:41:28;;;;;;;;;;;16.00;39.20;;;;;;8363339;28;19917;-50
2021/12/02 20:45:31;;;;;;;;;;;16.00;39.20;;;;;;8362940;28;19924;-50
2021/12/02 20:49:43;;;;;;;;;;;16.00;39.10;;;;;;8363438;28;19924;-48
2021/12/02 20:53:44;;;;;;;;;;;15.90;39.10;;;;;;8362798;28;20401;-48
2021/12/02 20:57:45;;;;;;;;;;;16.00;39.20;;;;;;8369822;28;19921;-49
2021/12/02 21:01:45;;;;;;;;;;;15.90;39.10;;;;;;8369980;28;19927;-52
2021/12/02 21:05:46;;;;;;;;;;;15.90;39.10;;;;;;8369390;28;19925;-50
2021/12/02 21:09:47;;;;;;;;;;;15.90;39.10;;;;;;8369864;28;19921;-50
2021/12/02 21:13:52;;;;;;;;;;;15.90;39.10;;;;;;8369434;28;20008;-51
2021/12/02 21:17:52;;;;;;;;;;;15.90;39.10;;;;;;8368831;28;19948;-49
2021/12/02 21:21:52;;;;;;;;;;;15.90;39.10;;;;;;8369236;28;19931;-49
2021/12/02 21:25:55;;;;;;;;;;;15.90;39.10;;;;;;8369432;28;19921;-49
2021/12/02 21:29:55;;;;;;;;;;;15.90;39.10;;;;;;8368524;28;20016;-49
2021/12/02 21:33:58;;;;;;;;;;;15.90;39.10;;;;;;8368779;28;19928;-49
2021/12/02 21:37:59;;;;;;;;;;;15.90;39.10;;;;;;8368910;28;19917;-49
2021/12/02 21:42:00;;;;;;;;;;;15.90;39.10;;;;;;8368412;28;19917;-49
2021/12/02 21:46:01;;;;;;;;;;;15.90;39.10;;;;;;8368593;28;19928;-48
2021/12/02 21:50:04;;;;;;;;;;;15.90;39.10;;;;;;8368357;28;19916;-50
2021/12/02 21:54:05;;;;;;;;;;;15.90;39.10;;;;;;8368039;28;19917;-52
2021/12/02 21:58:08;;;;;;;;;;;15.90;39.00;;;;;;8368679;28;19921;-49
2021/12/02 22:02:08;;;;;;;;;;;15.90;39.10;;;;;;8372450;28;20361;-49
2021/12/02 22:06:09;;;;;;;;;;;15.90;39.00;;;;;;8367170;28;19921;-48
2021/12/02 22:10:13;;;;;;;;;;;15.80;39.00;;;;;;8367879;28;19955;-49
2021/12/02 22:14:14;;;;;;;;;;;15.80;39.00;;;;;;8367764;28;20246;-49
2021/12/02 22:18:14;;;;;;;;;;;15.90;39.10;;;;;;8367159;28;19943;-48
2021/12/02 22:22:15;;;;;;;;;;;15.90;39.00;;;;;;8367830;28;19917;-48
2021/12/02 22:26:15;;;;;;;;;;;15.90;39.00;;;;;;8367407;28;19924;-49
2021/12/02 22:30:18;;;;;;;;;;;15.90;39.00;;;;;;8366821;28;19920;-51
2021/12/02 22:34:19;;;;;;;;;;;15.90;38.90;;;;;;8367188;28;19921;-50
2021/12/02 22:38:21;;;;;;;;;;;15.90;38.90;;;;;;8367002;28;19981;-51
2021/12/02 22:42:22;;;;;;;;;;;15.90;38.90;;;;;;8366394;28;20425;-49
2021/12/02 22:46:23;;;;;;;;;;;15.90;38.90;;;;;;8366766;28;19928;-50
2021/12/02 22:50:23;;;;;;;;;;;15.90;38.90;;;;;;8366816;28;19921;-52
2021/12/02 22:54:24;;;;;;;;;;;15.90;38.90;;;;;;8365908;28;20011;-50
2021/12/02 22:58:25;;;;;;;;;;;15.90;38.90;;;;;;8366263;28;20019;-53
2021/12/02 23:02:26;;;;;;;;;;;15.90;39.00;;;;;;8365707;28;19948;-48
2021/12/02 23:06:27;;;;;;;;;;;15.90;38.90;;;;;;8365100;28;19928;-48
2021/12/02 23:10:27;;;;;;;;;;;15.80;38.80;;;;;;8354159;28;19917;-48
2021/12/02 23:14:28;;;;;;;;;;;15.90;38.90;;;;;;8352198;28;19923;-49
2021/12/02 23:18:29;;;;;;;;;;;15.80;38.90;;;;;;8364309;28;19920;-52
2021/12/02 23:22:33;;;;;;;;;;;15.80;38.80;;;;;;8365571;28;20062;-51
2021/12/02 23:26:35;;;;;;;;;;;15.80;38.80;;;;;;8365448;28;19982;-48
2021/12/02 23:30:38;;;;;;;;;;;15.80;38.90;;;;;;8364750;28;20011;-49
2021/12/02 23:34:38;;;;;;;;;;;15.80;38.80;;;;;;8364833;28;19927;-48
2021/12/02 23:38:39;;;;;;;;;;;15.80;38.90;;;;;;8364984;28;19978;-51
2021/12/02 23:42:40;;;;;;;;;;;15.80;38.90;;;;;;8364275;28;19978;-48
2021/12/02 23:46:40;;;;;;;;;;;15.80;38.80;;;;;;8365035;28;20215;-48
2021/12/02 23:50:41;;;;;;;;;;;15.80;38.90;;;;;;8364461;28;19943;-48
2021/12/02 23:54:42;;;;;;;;;;;15.80;38.90;;;;;;8364165;28;19916;-48
2021/12/02 23:58:43;;;;;;;;;;;15.80;38.90;;;;;;8364318;28;19921;-49
